Time;durP1;ratioP1;P1;durP2;ratioP2;P2;SDS_P1;SDS_P2;PMS_P1;PMS_P2;Temp;Humidity;BMP_temperature;BMP_pressure;BME280_temperature;BME280_humidity;BME280_pressure;Samples;Min_cycle;Max_cycle;Signal;HPM_P1;HPM_P2
2022/03/07 00:00:51;;;;;;;;;59.25;47.00;;;;;7.32;46.19;102063.97;5077624;28;52812;-79
2022/03/07 00:03:17;;;;;;;;;55.25;42.50;;;;;7.29;46.35;102058.56;5077565;28;52765;-77
2022/03/07 00:05:42;;;;;;;;;60.50;44.00;;;;;7.29;46.11;102058.56;5078293;28;46458;-78
2022/03/07 00:08:08;;;;;;;;;57.00;43.75;;;;;7.25;46.16;102051.41;5077462;28;59032;-78
2022/03/07 00:10:33;;;;;;;;;60.25;44.75;;;;;7.22;46.42;102059.13;5059976;28;45485;-79
2022/03/07 00:12:59;;;;;;;;;57.25;46.00;;;;;7.20;46.38;102047.69;5077278;28;51875;-78
2022/03/07 00:15:24;;;;;;;;;60.25;45.25;;;;;7.18;46.22;102050.22;5059823;28;45645;-77
2022/03/07 00:17:50;;;;;;;;;50.00;41.75;;;;;7.17;46.27;102043.16;5059135;28;56736;-78
2022/03/07 00:20:15;;;;;;;;;62.50;46.00;;;;;7.13;46.71;102048.22;5077631;28;45373;-78
2022/03/07 00:22:40;;;;;;;;;59.75;47.25;;;;;7.14;46.64;102048.31;5077909;28;45160;-78
2022/03/07 00:25:07;;;;;;;;;58.25;46.25;;;;;7.12;46.59;102052.56;5077584;28;45611;-79
2022/03/07 00:27:33;;;;;;;;;57.00;45.00;;;;;7.09;46.45;102052.44;5059294;28;45388;-77
2022/03/07 00:29:58;;;;;;;;;58.75;43.75;;;;;7.08;46.74;102053.25;5059773;28;45422;-77
2022/03/07 00:32:24;;;;;;;;;53.00;42.50;;;;;7.07;46.60;102061.97;5046735;28;45417;-79
2022/03/07 00:34:49;;;;;;;;;59.75;44.75;;;;;7.02;46.71;102067.00;5059228;28;47488;-78
2022/03/07 00:37:15;;;;;;;;;56.00;41.50;;;;;7.02;46.60;102064.38;5059034;28;45328;-77
2022/03/07 00:39:40;;;;;;;;;60.25;41.25;;;;;7.02;46.70;102064.38;5077592;28;45746;-78
2022/03/07 00:42:06;;;;;;;;;56.25;42.25;;;;;6.99;46.89;102068.63;5077383;28;51617;-77
2022/03/07 00:44:31;;;;;;;;;53.25;42.50;;;;;6.97;47.01;102068.53;5077427;28;47188;-78
2022/03/07 00:46:56;;;;;;;;;57.25;42.75;;;;;6.95;46.97;102059.69;5077318;28;49436;-78
2022/03/07 00:49:22;;;;;;;;;60.00;44.50;;;;;6.93;46.95;102064.00;5077585;28;45211;-76
2022/03/07 00:51:47;;;;;;;;;63.50;43.75;;;;;6.93;46.95;102066.63;5076510;28;52075;-80
2022/03/07 00:54:13;;;;;;;;;56.75;44.25;;;;;6.92;46.92;102067.41;5076643;28;63282;-78
2022/03/07 00:56:39;;;;;;;;;56.75;43.00;;;;;6.90;47.00;102060.31;5077256;28;45977;-77
2022/03/07 00:59:04;;;;;;;;;57.50;43.50;;;;;6.88;46.90;102064.63;5077298;28;45441;-77
2022/03/07 01:01:29;;;;;;;;;56.50;43.25;;;;;6.86;47.13;102061.88;5076705;28;55116;-77
2022/03/07 01:03:55;;;;;;;;;58.75;43.50;;;;;6.83;46.97;102060.03;5076233;28;47439;-78
2022/03/07 01:06:20;;;;;;;;;46.25;39.25;;;;;6.82;46.94;102070.47;5076773;28;58831;-77
2022/03/07 01:08:45;;;;;;;;;61.75;43.00;;;;;6.79;47.00;102065.06;5042125;28;45912;-78
2022/03/07 01:11:11;;;;;;;;;63.00;46.75;;;;;6.78;47.33;102061.56;5077068;28;50417;-78
2022/03/07 01:13:36;;;;;;;;;52.00;42.75;;;;;6.78;47.09;102064.19;5041727;28;45603;-79
2022/03/07 01:16:02;;;;;;;;;57.75;43.00;;;;;6.73;47.14;102060.44;5076511;28;55288;-78
2022/03/07 01:18:27;;;;;;;;;54.00;43.50;;;;;6.71;47.20;102051.63;5077066;28;45364;-79
2022/03/07 01:20:52;;;;;;;;;56.75;40.75;;;;;6.71;47.49;102056.88;5076787;28;50234;-77
2022/03/07 01:23:18;;;;;;;;;52.25;41.25;;;;;6.72;47.41;102060.38;5058496;28;61357;-77
2022/03/07 01:25:43;;;;;;;;;55.50;41.00;;;;;6.71;47.23;102061.19;5076919;28;45307;-79
2022/03/07 01:28:09;;;;;;;;;52.50;42.00;;;;;6.67;47.17;102047.03;5076889;28;45295;-77
2022/03/07 01:30:34;;;;;;;;;55.75;40.75;;;;;6.66;47.26;102054.81;5041674;28;56428;-78
2022/03/07 01:33:00;;;;;;;;;42.50;39.50;;;;;6.66;47.44;102057.44;5076447;28;45706;-77
2022/03/07 01:35:25;;;;;;;;;49.75;41.75;;;;;6.65;47.61;102055.66;5058686;28;61740;-80
2022/03/07 01:37:51;;;;;;;;;50.50;42.75;;;;;6.52;47.33;102034.09;5080450;28;45504;-79
2022/03/07 01:40:16;;;;;;;;;60.50;43.25;;;;;6.60;47.59;102052.81;5080075;28;45487;-78
2022/03/07 01:42:41;;;;;;;;;47.50;42.25;;;;;6.55;47.54;102043.81;5079252;28;64140;-77
2022/03/07 01:45:14;;;;;;;;;55.75;38.75;;;;;6.54;47.48;102050.81;5061820;28;56075;-79
2022/03/07 01:47:40;;;;;;;;;63.75;45.00;;;;;6.54;47.47;102050.81;5080448;28;45352;-78
2022/03/07 01:50:06;;;;;;;;;46.75;39.25;;;;;6.53;47.49;102048.13;5080217;28;45232;-77
2022/03/07 01:52:33;;;;;;;;;37.25;33.00;;;;;6.50;47.60;102051.50;5044798;28;46781;-79
2022/03/07 01:54:59;;;;;;;;;50.50;43.50;;;;;6.42;47.51;102031.88;5039716;28;45379;-77
2022/03/07 01:57:24;;;;;;;;;45.25;38.50;;;;;6.43;47.53;102040.63;5038098;28;46613;-77
2022/03/07 01:59:49;;;;;;;;;46.50;39.50;;;;;6.45;47.49;102034.66;5018128;28;53251;-79
2022/03/07 02:02:15;;;;;;;;;52.25;42.00;;;;;6.40;47.40;102023.03;5035719;28;61018;-78
2022/03/07 02:04:40;;;;;;;;;52.25;38.75;;;;;6.43;47.41;102038.00;5037901;28;45311;-79
2022/03/07 02:07:06;;;;;;;;;57.00;43.25;;;;;6.40;47.58;102017.78;5039497;28;45309;-77
2022/03/07 02:09:31;;;;;;;;;53.50;38.25;;;;;6.43;47.65;102024.91;5038795;28;45293;-77
2022/03/07 02:11:56;;;;;;;;;54.25;42.00;;;;;6.44;47.51;102021.44;5038496;28;55765;-79
2022/03/07 02:14:22;;;;;;;;;47.25;39.00;;;;;6.42;47.47;102024.00;5038968;28;58756;-79
2022/03/07 02:16:47;;;;;;;;;57.00;40.50;;;;;6.41;47.61;102024.84;5037850;28;45273;-78
2022/03/07 02:19:13;;;;;;;;;50.00;40.00;;;;;6.38;47.55;102026.41;5038160;28;50066;-78
2022/03/07 02:21:46;;;;;;;;;55.00;42.50;;;;;6.36;47.68;102028.97;5021044;28;47366;-78
2022/03/07 02:24:11;;;;;;;;;47.00;40.00;;;;;6.32;47.55;102026.13;5038106;28;45395;-76
2022/03/07 02:26:37;;;;;;;;;46.50;38.75;;;;;6.30;47.63;102020.81;5038007;28;45378;-78
2022/03/07 02:29:02;;;;;;;;;49.50;39.25;;;;;6.24;47.61;102005.69;5039281;28;45534;-77
2022/03/07 02:31:29;;;;;;;;;57.00;38.00;;;;;6.23;47.81;102014.38;5037661;28;49797;-78
2022/03/07 02:33:54;;;;;;;;;48.25;40.25;;;;;6.23;47.66;101997.72;5037739;28;45537;-78
2022/03/07 02:36:20;;;;;;;;;45.75;38.25;;;;;6.17;47.70;101995.72;5039359;28;45332;-77
2022/03/07 02:38:45;;;;;;;;;44.00;38.50;;;;;6.18;47.81;101992.28;5038432;28;45236;-76
2022/03/07 02:41:11;;;;;;;;;53.50;38.75;;;;;6.21;47.62;102012.50;5039283;28;45356;-77
2022/03/07 02:43:36;;;;;;;;;52.00;42.50;;;;;6.18;47.64;102004.47;5038516;28;53892;-77
2022/03/07 02:46:01;;;;;;;;;42.00;34.75;;;;;6.17;47.90;101998.34;5039099;28;45236;-76
2022/03/07 02:48:27;;;;;;;;;47.00;35.75;;;;;6.14;47.68;101999.94;5039164;28;45427;-77
2022/03/07 02:50:52;;;;;;;;;43.25;36.25;;;;;6.12;48.09;101998.94;5038679;28;45866;-77
2022/03/07 02:53:18;;;;;;;;;48.00;40.75;;;;;6.09;48.12;101993.56;5077205;28;62121;-77
2022/03/07 02:55:44;;;;;;;;;51.50;37.00;;;;;6.08;47.80;101984.81;5060524;28;56003;-78
2022/03/07 02:58:09;;;;;;;;;52.25;41.00;;;;;6.08;47.99;102000.53;5079075;28;45418;-78
2022/03/07 03:00:34;;;;;;;;;44.00;37.50;;;;;6.07;48.23;101988.22;5078749;28;45376;-77
2022/03/07 03:03:00;;;;;;;;;48.75;37.75;;;;;6.03;47.95;101991.56;5060672;28;45476;-77
2022/03/07 03:05:25;;;;;;;;;49.00;38.25;;;;;6.02;48.10;101992.38;5079389;28;45600;-78
2022/03/07 03:07:51;;;;;;;;;41.75;34.25;;;;;6.00;47.93;101991.41;5079317;28;45232;-78
2022/03/07 03:10:17;;;;;;;;;42.50;35.25;;;;;5.96;48.06;101984.19;5059970;28;45584;-78
2022/03/07 03:12:42;;;;;;;;;44.25;39.00;;;;;5.96;48.08;101994.69;5079028;28;45280;-78
2022/03/07 03:15:08;;;;;;;;;47.75;40.00;;;;;5.91;48.16;101986.63;5078988;28;45393;-78
2022/03/07 03:17:34;;;;;;;;;46.75;38.25;;;;;5.94;48.19;101985.84;5078890;28;45485;-77
2022/03/07 03:19:59;;;;;;;;;40.00;32.00;;;;;5.93;48.17;101986.69;5078724;28;46736;-78
2022/03/07 03:22:25;;;;;;;;;46.00;36.00;;;;;5.90;48.02;101983.88;5060688;28;45314;-77
2022/03/07 03:24:50;;;;;;;;;47.25;42.00;;;;;5.86;48.09;101974.06;5078070;28;45449;-78
2022/03/07 03:27:15;;;;;;;;;45.25;39.00;;;;;5.88;48.35;101970.69;5060375;28;45383;-78
2022/03/07 03:29:41;;;;;;;;;55.25;36.75;;;;;5.87;48.53;101982.00;5078528;28;45555;-77
2022/03/07 03:32:07;;;;;;;;;54.50;41.00;;;;;5.84;48.62;101971.38;5052771;28;45467;-79
2022/03/07 03:34:32;;;;;;;;;54.25;39.00;;;;;5.84;48.57;101988.81;5060425;28;45443;-77
2022/03/07 03:36:57;;;;;;;;;43.25;36.50;;;;;5.78;48.68;101974.59;5078674;28;45418;-78
2022/03/07 03:39:23;;;;;;;;;53.00;39.50;;;;;5.75;48.34;101979.72;5059577;28;61034;-79
2022/03/07 03:41:48;;;;;;;;;37.75;35.75;;;;;5.78;48.61;101986.81;5060446;28;45374;-77
2022/03/07 03:44:14;;;;;;;;;47.25;39.00;;;;;5.77;48.34;101980.66;5060047;28;45859;-79
2022/03/07 03:46:39;;;;;;;;;36.00;34.00;;;;;5.75;48.45;101982.31;5043206;28;51859;-78
2022/03/07 03:49:05;;;;;;;;;42.75;38.75;;;;;5.73;48.75;101978.72;5078316;28;45755;-77
2022/03/07 03:51:31;;;;;;;;;43.75;34.50;;;;;5.69;48.85;101976.75;5043319;28;45436;-77
2022/03/07 03:53:57;;;;;;;;;40.50;35.50;;;;;5.70;48.66;101982.88;5068293;28;45469;-78
2022/03/07 03:56:22;;;;;;;;;42.00;32.00;;;;;5.68;48.63;101985.44;5059497;28;54041;-77
2022/03/07 03:58:47;;;;;;;;;41.25;34.75;;;;;5.69;48.82;101987.25;5077018;28;45433;-78
2022/03/07 04:01:13;;;;;;;;;49.50;38.25;;;;;5.68;48.52;101993.31;5076248;28;51088;-78
2022/03/07 04:03:39;;;;;;;;;46.25;34.75;;;;;5.67;48.73;101998.47;5077387;28;57446;-77
2022/03/07 04:06:06;;;;;;;;;49.50;38.25;;;;;5.64;48.80;101991.34;5059833;28;45373;-78
2022/03/07 04:08:39;;;;;;;;;54.00;37.75;;;;;5.64;48.71;101993.97;5077964;28;46164;-77
2022/03/07 04:11:20;;;;;;;;;45.50;36.50;;;;;5.58;48.68;101988.44;5059967;28;45499;-79
2022/03/07 04:13:46;;;;;;;;;41.75;35.75;;;;;5.59;48.85;101998.09;5078068;28;45299;-78
2022/03/07 04:16:11;;;;;;;;;42.50;35.50;;;;;5.56;48.90;101989.19;5078097;28;45477;-77
2022/03/07 04:18:37;;;;;;;;;42.75;39.00;;;;;5.53;48.81;101989.91;5077181;28;60403;-78
2022/03/07 04:21:02;;;;;;;;;51.75;36.50;;;;;5.52;48.89;101989.03;5077446;28;57999;-79
2022/03/07 04:23:27;;;;;;;;;37.75;31.75;;;;;5.50;48.95;101988.06;5078078;28;45874;-78
2022/03/07 04:25:53;;;;;;;;;49.00;35.25;;;;;5.49;49.08;101985.38;5077743;28;45445;-78
2022/03/07 04:28:18;;;;;;;;;44.00;35.00;;;;;5.46;48.85;101979.97;5077458;28;56552;-76
2022/03/07 04:30:44;;;;;;;;;44.50;36.75;;;;;5.45;49.03;101986.03;5077307;28;45398;-77
2022/03/07 04:33:10;;;;;;;;;44.50;34.00;;;;;5.46;49.19;101990.44;5059214;28;58451;-77
2022/03/07 04:35:35;;;;;;;;;48.00;34.00;;;;;5.44;49.13;101989.50;5077524;28;45469;-76
2022/03/07 04:38:01;;;;;;;;;40.75;34.50;;;;;5.43;49.21;101987.66;5076369;28;63748;-78
2022/03/07 04:40:26;;;;;;;;;48.50;36.00;;;;;5.41;49.17;101989.31;5077557;28;45565;-78
2022/03/07 04:42:52;;;;;;;;;42.50;34.25;;;;;5.42;49.11;101985.88;5077592;28;45243;-78
2022/03/07 04:45:18;;;;;;;;;38.25;32.50;;;;;5.41;49.05;101992.84;5077270;28;45538;-77
2022/03/07 04:47:43;;;;;;;;;41.75;34.00;;;;;5.41;49.17;101992.84;5077135;28;46701;-77
2022/03/07 04:50:09;;;;;;;;;46.00;36.75;;;;;5.40;49.05;101990.16;5077027;28;51841;-76
2022/03/07 04:52:35;;;;;;;;;59.75;34.25;;;;;5.37;49.29;101992.59;5077258;28;45228;-77
2022/03/07 04:55:00;;;;;;;;;39.25;34.25;;;;;5.35;49.39;101996.88;5059368;28;45236;-78
2022/03/07 04:57:26;;;;;;;;;48.75;39.00;;;;;5.33;49.23;102002.03;5058327;28;59840;-77
2022/03/07 04:59:51;;;;;;;;;40.25;37.50;;;;;5.31;49.35;101997.53;5075911;28;60888;-77
2022/03/07 05:02:17;;;;;;;;;39.25;36.25;;;;;5.29;49.60;101996.56;5075681;28;50985;-79
2022/03/07 05:04:42;;;;;;;;;48.50;38.00;;;;;5.32;49.47;101988.84;5058709;28;45373;-77
2022/03/07 05:07:07;;;;;;;;;49.25;38.00;;;;;5.30;49.54;101999.25;5058160;28;65207;-76
2022/03/07 05:09:34;;;;;;;;;44.00;33.25;;;;;5.25;49.28;101988.53;5075908;28;62218;-78
2022/03/07 05:11:59;;;;;;;;;38.50;32.50;;;;;5.30;49.41;102000.97;5042094;28;45340;-77
2022/03/07 05:14:24;;;;;;;;;45.25;38.25;;;;;5.29;49.33;102001.81;5042526;28;45600;-77
2022/03/07 05:16:50;;;;;;;;;46.75;36.25;;;;;5.27;49.18;101996.47;5076614;28;62505;-78
2022/03/07 05:19:15;;;;;;;;;40.75;31.25;;;;;5.25;49.55;101998.13;5041119;28;59910;-79
2022/03/07 05:21:41;;;;;;;;;42.00;32.75;;;;;5.19;49.38;101990.84;5076583;28;52394;-78
2022/03/07 05:24:06;;;;;;;;;41.00;34.75;;;;;5.16;49.48;101988.06;5076669;28;45275;-77
2022/03/07 05:26:32;;;;;;;;;31.00;29.50;;;;;5.13;49.62;101981.78;5075577;28;48636;-77
2022/03/07 05:28:57;;;;;;;;;47.75;37.25;;;;;5.18;49.65;101994.28;5058898;28;45245;-80
2022/03/07 05:31:22;;;;;;;;;41.75;36.75;;;;;5.18;49.71;101996.91;5053218;28;57715;-78
2022/03/07 05:33:48;;;;;;;;;37.50;33.00;;;;;5.15;49.39;101994.13;5075527;28;46625;-78
2022/03/07 05:36:14;;;;;;;;;46.00;34.25;;;;;5.12;49.52;101999.22;5058739;28;46467;-77
2022/03/07 05:38:39;;;;;;;;;38.25;34.25;;;;;5.16;49.58;102005.50;5058464;28;49597;-78
2022/03/07 05:41:05;;;;;;;;;51.25;36.50;;;;;5.15;49.50;101995.84;5072212;28;45604;-79
2022/03/07 05:43:30;;;;;;;;;48.75;40.50;;;;;5.13;49.84;102007.97;5076639;28;45371;-77
2022/03/07 05:45:55;;;;;;;;;41.50;37.75;;;;;5.10;49.67;102000.84;5076415;28;45970;-77
2022/03/07 05:48:21;;;;;;;;;39.50;37.25;;;;;5.09;49.73;102006.00;5076653;28;45225;-79
2022/03/07 05:50:46;;;;;;;;;47.75;38.50;;;;;5.03;49.84;101988.25;5076327;28;45214;-78
2022/03/07 05:53:12;;;;;;;;;46.50;39.75;;;;;5.05;49.92;102001.41;5057982;28;52835;-77
2022/03/07 05:55:37;;;;;;;;;42.50;32.00;;;;;5.06;49.75;102003.22;5075880;28;64293;-78
2022/03/07 05:58:02;;;;;;;;;45.50;36.75;;;;;5.02;49.75;102001.28;5076025;28;56157;-78
2022/03/07 06:00:28;;;;;;;;;42.00;35.75;;;;;5.02;49.81;102009.13;5076246;28;54578;-78
2022/03/07 06:02:54;;;;;;;;;44.75;36.25;;;;;5.00;49.82;102001.19;5078415;28;45607;-78
2022/03/07 06:05:20;;;;;;;;;43.75;37.25;;;;;4.94;50.06;101995.63;5075464;28;46783;-79
2022/03/07 06:07:45;;;;;;;;;50.00;40.50;;;;;4.95;50.22;102007.88;5048453;28;46492;-81
2022/03/07 06:10:11;;;;;;;;;52.25;37.25;;;;;4.93;50.15;102007.81;5039895;28;60565;-81
2022/03/07 06:12:36;;;;;;;;;48.00;34.25;;;;;4.93;49.97;102006.91;5045609;28;45545;-80
2022/03/07 06:15:03;;;;;;;;;46.00;35.75;;;;;4.92;49.95;102019.09;5056399;28;45602;-80
2022/03/07 06:17:30;;;;;;;;;46.75;39.75;;;;;4.90;50.04;102007.66;5058066;28;45248;-79
2022/03/07 06:19:56;;;;;;;;;40.50;35.25;;;;;4.88;50.01;102014.53;5075759;28;45210;-80
2022/03/07 06:22:21;;;;;;;;;48.00;37.50;;;;;4.87;50.22;102017.97;5060777;28;45213;-80
2022/03/07 06:24:47;;;;;;;;;55.00;37.25;;;;;4.76;50.04;102008.66;5077931;28;47294;-79
2022/03/07 06:27:12;;;;;;;;;47.00;37.25;;;;;4.87;50.17;102024.91;5060183;28;57481;-80
2022/03/07 06:29:37;;;;;;;;;41.75;35.75;;;;;4.87;50.30;102017.06;5078862;28;45803;-79
2022/03/07 06:32:03;;;;;;;;;59.50;41.50;;;;;4.82;50.45;102005.47;5060367;28;46670;-86
2022/03/07 06:34:28;;;;;;;;;50.50;40.50;;;;;4.81;50.21;102020.25;5041202;28;46895;-81
2022/03/07 06:36:54;;;;;;;;;46.75;40.00;;;;;4.86;50.16;102021.41;5074797;28;45249;-79
2022/03/07 06:39:25;;;;;;;;;44.50;37.50;;;;;4.87;50.43;102024.91;5075745;28;45412;-81
2022/03/07 06:41:50;;;;;;;;;48.50;38.75;;;;;4.87;50.49;102027.53;5070189;28;45436;-81
2022/03/07 06:44:16;;;;;;;;;43.00;36.25;;;;;4.83;50.27;102018.59;5067750;28;45915;-85
2022/03/07 06:46:41;;;;;;;;;47.00;35.25;;;;;4.86;50.19;102031.88;5057987;28;49936;-79
2022/03/07 06:49:07;;;;;;;;;59.00;46.75;;;;;4.87;50.43;102031.03;5072233;28;50845;-80
2022/03/07 06:51:32;;;;;;;;;48.50;38.25;;;;;4.87;50.14;102036.28;5078052;28;45509;-81
2022/03/07 06:53:57;;;;;;;;;54.00;38.00;;;;;4.86;50.57;102037.09;5072213;28;45883;-83
2022/03/07 06:56:23;;;;;;;;;45.25;35.50;;;;;4.87;50.06;102031.03;5054043;28;55996;-80
2022/03/07 06:58:48;;;;;;;;;46.00;36.50;;;;;4.90;50.53;102030.28;5077523;28;45422;-81
2022/03/07 07:01:14;;;;;;;;;48.25;37.25;;;;;4.88;50.51;102027.59;5076236;28;45493;-82
2022/03/07 07:03:39;;;;;;;;;46.00;39.25;;;;;4.90;50.33;102028.59;5071151;28;47491;-81
2022/03/07 07:06:04;;;;;;;;;50.00;37.25;;;;;4.85;50.24;102017.00;5074824;28;45570;-77
2022/03/07 07:08:30;;;;;;;;;44.25;38.00;;;;;4.91;50.54;102021.66;5057871;28;45815;-77
2022/03/07 07:10:56;;;;;;;;;45.25;32.50;;;;;4.93;50.48;102027.84;5077171;28;45466;-77
2022/03/07 07:13:21;;;;;;;;;46.25;40.25;;;;;4.95;50.57;102028.81;5077836;28;46749;-77
2022/03/07 07:15:54;;;;;;;;;45.00;36.25;;;;;4.98;49.87;102034.22;5077442;28;53796;-82
2022/03/07 07:18:20;;;;;;;;;42.00;35.25;;;;;4.97;50.43;102028.09;5074589;28;45425;-78
2022/03/07 07:20:46;;;;;;;;;45.50;39.00;;;;;4.99;50.16;102023.84;5077825;28;45627;-80
2022/03/07 07:23:11;;;;;;;;;46.75;37.75;;;;;5.01;50.33;102029.19;5077908;28;58037;-79
2022/03/07 07:25:36;;;;;;;;;60.50;41.00;;;;;5.03;50.32;102026.63;5077357;28;62381;-79
2022/03/07 07:28:02;;;;;;;;;42.50;38.00;;;;;5.02;50.39;102038.81;5076746;28;56525;-78
2022/03/07 07:30:27;;;;;;;;;62.25;42.75;;;;;4.95;49.98;102014.06;5076546;28;48377;-78
2022/03/07 07:32:53;;;;;;;;;46.25;41.00;;;;;5.05;50.18;102031.09;5069079;28;47724;-78
2022/03/07 07:35:18;;;;;;;;;47.25;40.00;;;;;5.06;50.20;102026.78;5075205;28;45505;-78
2022/03/07 07:37:43;;;;;;;;;63.50;45.75;;;;;5.08;50.02;102025.16;5076870;28;46109;-78
2022/03/07 07:40:09;;;;;;;;;42.75;36.50;;;;;5.10;50.52;102034.88;5074066;28;52040;-78
2022/03/07 07:42:35;;;;;;;;;46.50;42.00;;;;;5.12;50.09;102034.97;5071444;28;46692;-80
2022/03/07 07:45:00;;;;;;;;;50.50;39.50;;;;;5.09;50.19;102025.22;5073739;28;45530;-77
2022/03/07 07:47:25;;;;;;;;;42.00;34.50;;;;;5.17;50.30;102043.97;5071986;28;53918;-77
2022/03/07 07:49:51;;;;;;;;;43.75;36.00;;;;;5.17;49.75;102031.78;5075050;28;50190;-77
2022/03/07 07:52:16;;;;;;;;;46.25;39.50;;;;;5.19;49.97;102030.13;5197961;22;58820;-77
2022/03/07 07:54:41;;;;;;;;;37.50;29.75;;;;;5.22;49.91;102021.53;5074179;27;46153;-78
2022/03/07 07:57:07;;;;;;;;;52.00;40.00;;;;;5.24;49.61;102019.88;5075684;27;45461;-77
2022/03/07 07:59:33;;;;;;;;;50.00;39.25;;;;;5.26;49.87;102023.47;5082807;27;45544;-77
2022/03/07 08:01:58;;;;;;;;;48.75;37.75;;;;;5.32;50.17;102022.88;5075850;27;47356;-77
2022/03/07 08:04:24;;;;;;;;;52.25;43.00;;;;;5.35;49.84;102018.72;5075245;28;45694;-77
2022/03/07 08:06:49;;;;;;;;;48.00;40.50;;;;;5.39;49.91;102012.81;5072695;27;55527;-77
2022/03/07 08:09:15;;;;;;;;;53.00;40.25;;;;;5.43;49.90;102020.03;5073527;27;45425;-78
2022/03/07 08:11:40;;;;;;;;;55.25;40.25;;;;;5.46;49.73;102020.16;5075477;27;46298;-77
2022/03/07 08:14:06;;;;;;;;;41.00;36.25;;;;;5.51;49.60;102009.91;5074593;27;57319;-77
2022/03/07 08:16:31;;;;;;;;;46.50;36.50;;;;;5.53;49.54;102005.63;5075715;27;45448;-77
2022/03/07 08:18:57;;;;;;;;;51.75;40.00;;;;;5.57;49.43;102015.47;5075046;27;55731;-77
2022/03/07 08:21:25;;;;;;;;;56.75;38.25;;;;;5.60;49.50;102019.97;5074924;27;47491;-77
2022/03/07 08:23:52;;;;;;;;;47.00;38.50;;;;;5.59;49.26;102012.91;5074872;27;45570;-78
2022/03/07 08:26:18;;;;;;;;;43.00;37.00;;;;;5.60;49.25;102005.16;5076146;27;45216;-77
2022/03/07 08:28:43;;;;;;;;;47.00;35.00;;;;;5.66;49.22;102002.81;5075879;27;54614;-77
2022/03/07 08:31:08;;;;;;;;;45.25;39.50;;;;;5.66;49.12;102000.22;5073628;27;47327;-78
2022/03/07 08:33:34;;;;;;;;;46.25;40.25;;;;;5.72;48.64;101997.88;5074982;27;58454;-78
2022/03/07 08:35:59;;;;;;;;;41.50;33.00;;;;;5.77;49.09;102021.69;5075259;27;45514;-77
2022/03/07 08:38:25;;;;;;;;;56.25;42.00;;;;;5.81;48.80;102007.94;5076253;27;45464;-77
2022/03/07 08:40:51;;;;;;;;;56.75;40.50;;;;;5.85;48.85;102011.56;5075028;27;45988;-77
2022/03/07 08:43:16;;;;;;;;;45.25;39.75;;;;;5.91;48.57;101999.72;5075289;27;45519;-77
2022/03/07 08:45:42;;;;;;;;;56.25;41.00;;;;;5.94;48.47;102001.59;5076218;27;45366;-77
2022/03/07 08:48:07;;;;;;;;;45.75;40.00;;;;;5.93;48.39;101995.44;5074926;27;45494;-77
2022/03/07 08:50:32;;;;;;;;;46.75;38.50;;;;;6.01;48.49;101998.44;5077918;27;61412;-78
2022/03/07 08:52:58;;;;;;;;;45.75;39.00;;;;;6.06;48.35;101996.94;5074554;27;59812;-78
2022/03/07 08:55:23;;;;;;;;;38.75;26.75;;;;;6.11;48.40;102003.28;5075379;27;45361;-78
2022/03/07 08:57:49;;;;;;;;;51.75;38.75;;;;;6.14;48.16;102000.81;5079210;27;45620;-78
2022/03/07 09:00:15;;;;;;;;;51.00;40.00;;;;;6.18;47.16;101999.22;5066178;27;46501;-79
2022/03/07 09:02:40;;;;;;;;;45.50;35.50;;;;;6.21;48.05;102007.25;5068722;27;45517;-77
2022/03/07 09:05:06;;;;;;;;;48.75;39.00;;;;;6.26;48.34;101996.16;5070240;27;52347;-79
2022/03/07 09:07:31;;;;;;;;;49.25;37.00;;;;;6.33;48.03;102007.81;5074196;27;45608;-78
2022/03/07 09:09:57;;;;;;;;;51.50;42.00;;;;;6.30;47.56;101982.38;5074631;27;54029;-79
2022/03/07 09:12:27;;;;;;;;;46.00;38.25;;;;;6.34;47.75;101987.72;5075111;28;46938;-79
2022/03/07 09:14:53;;;;;;;;;50.50;42.50;;;;;6.50;47.46;101992.91;5074524;27;45685;-79
2022/03/07 09:17:18;;;;;;;;;50.75;40.50;;;;;6.55;47.36;102005.41;5075614;27;45610;-80
2022/03/07 09:19:44;;;;;;;;;53.00;41.00;;;;;6.61;47.21;101996.00;5075189;27;47517;-80
2022/03/07 09:22:09;;;;;;;;;46.75;38.50;;;;;6.65;47.17;101982.16;5073367;27;58145;-80
2022/03/07 09:24:34;;;;;;;;;53.50;43.75;;;;;6.69;46.61;101995.50;5074818;27;47190;-81
2022/03/07 09:27:00;;;;;;;;;56.50;44.50;;;;;6.72;46.80;101984.28;5074396;27;45372;-82
2022/03/07 09:29:26;;;;;;;;;56.25;42.75;;;;;6.80;47.01;101993.38;5074771;27;46199;-81
2022/03/07 09:31:51;;;;;;;;;46.25;40.25;;;;;6.82;47.16;101982.13;5069271;27;45509;-80
2022/03/07 09:34:16;;;;;;;;;58.50;41.75;;;;;6.94;46.77;101992.25;5075224;27;46186;-81
2022/03/07 09:36:42;;;;;;;;;51.25;40.25;;;;;6.98;46.54;101988.06;5074598;27;45144;-81
2022/03/07 09:39:07;;;;;;;;;53.75;40.75;;;;;7.04;46.18;101991.84;5061402;28;46710;-80
2022/03/07 09:41:33;;;;;;;;;48.25;39.00;;;;;7.02;46.37;101969.84;5074796;27;45607;-80
2022/03/07 09:43:58;;;;;;;;;42.75;36.00;;;;;7.17;46.37;101995.00;5074641;27;50377;-79
2022/03/07 09:46:23;;;;;;;;;52.50;41.75;;;;;7.18;46.14;101983.66;5073274;27;46283;-80
2022/03/07 09:48:49;;;;;;;;;59.50;41.25;;;;;7.26;46.08;101985.78;5070951;27;48312;-79
2022/03/07 09:51:14;;;;;;;;;48.75;38.00;;;;;7.30;46.26;101984.19;5069149;27;59215;-78
2022/03/07 09:53:40;;;;;;;;;47.00;39.25;;;;;7.35;46.11;101980.03;5073398;27;45658;-81
2022/03/07 09:56:05;;;;;;;;;46.75;38.50;;;;;7.40;46.19;101974.94;5073032;27;45457;-82
2022/03/07 09:58:31;;;;;;;;;41.00;38.00;;;;;7.48;45.50;101981.44;5078343;27;47708;-79
2022/03/07 10:01:10;;;;;;;;;51.00;42.00;;;;;7.46;44.74;101965.63;5082007;27;45527;-80
2022/03/07 10:03:36;;;;;;;;;44.50;38.00;;;;;7.52;45.73;101967.59;5076111;27;45625;-80
2022/03/07 10:06:01;;;;;;;;;44.75;33.25;;;;;7.61;45.26;101975.84;5077642;27;47384;-80
2022/03/07 10:08:28;;;;;;;;;44.75;38.00;;;;;7.58;44.66;101963.50;5077382;27;60571;-79
2022/03/07 10:10:54;;;;;;;;;38.25;33.75;;;;;7.67;44.42;101968.25;5073948;27;45838;-77
2022/03/07 10:13:20;;;;;;;;;45.25;39.75;;;;;7.69;44.73;101955.16;5072479;27;45536;-79
2022/03/07 10:15:54;;;;;;;;;51.25;39.75;;;;;7.76;44.57;101959.81;5076306;27;45588;-81
2022/03/07 10:18:20;;;;;;;;;50.50;40.00;;;;;7.79;43.86;101960.84;5075364;27;47555;-79
2022/03/07 10:20:53;;;;;;;;;47.75;35.75;;;;;7.82;44.24;101963.56;5074963;27;57677;-81
2022/03/07 10:53:40;;;;;;;;;40.50;35.25;;;;;8.42;41.18;101934.38;5047051;28;45525;-81
2022/03/07 10:56:05;;;;;;;;;51.50;39.25;;;;;8.48;41.72;101931.09;5057013;28;47403;-82
2022/03/07 10:58:31;;;;;;;;;45.75;35.75;;;;;8.51;41.15;101928.53;5055852;28;45593;-80
2022/03/07 11:00:58;;;;;;;;;49.25;37.50;;;;;8.51;41.43;101925.91;5055566;28;54757;-80
2022/03/07 11:03:31;;;;;;;;;45.00;34.50;;;;;8.54;41.61;101918.16;5055277;28;45529;-82
2022/03/07 11:05:57;;;;;;;;;42.25;36.50;;;;;8.57;40.07;101910.34;5056101;28;46079;-81
2022/03/07 11:08:23;;;;;;;;;40.50;35.00;;;;;8.62;39.68;101919.31;5056427;28;45801;-80
2022/03/07 11:10:52;;;;;;;;;44.75;37.25;;;;;8.65;40.89;101894.00;5056228;28;45335;-83
2022/03/07 11:13:19;;;;;;;;;38.75;33.25;;;;;8.63;41.18;101894.78;5055613;28;45251;-83
2022/03/07 11:15:45;;;;;;;;;41.75;35.00;;;;;8.72;41.10;101900.38;5056202;28;47908;-83
2022/03/07 11:18:11;;;;;;;;;45.75;36.00;;;;;8.81;40.05;101905.06;5055126;28;45542;-83
2022/03/07 11:20:41;;;;;;;;;41.50;33.25;;;;;8.87;40.01;101905.28;5038879;28;45466;-82
2022/03/07 11:23:08;;;;;;;;;40.25;33.25;;;;;8.88;40.12;101889.53;5039934;28;45443;-82
2022/03/07 11:25:34;;;;;;;;;39.25;32.50;;;;;8.95;38.80;101882.75;5055490;28;45466;-80
2022/03/07 11:27:59;;;;;;;;;38.25;32.50;;;;;8.98;40.28;101880.22;5055112;28;45494;-80
2022/03/07 11:30:27;;;;;;;;;36.25;29.75;;;;;9.03;40.29;101889.16;5056474;28;45409;-80
2022/03/07 11:32:52;;;;;;;;;38.00;31.00;;;;;9.07;40.06;101879.63;5055964;28;45494;-82
2022/03/07 11:35:18;;;;;;;;;44.50;33.25;;;;;9.12;40.45;101873.69;5056080;28;47617;-82
2022/03/07 11:37:44;;;;;;;;;36.50;31.00;;;;;9.12;40.46;101860.50;5055558;28;45405;-81
2022/03/07 11:40:21;;;;;;;;;37.00;28.75;;;;;9.24;39.46;101859.13;5055257;28;45748;-80